Time;durP1;ratioP1;P1;durP2;ratioP2;P2;SDS_P1;SDS_P2;PMS_P1;PMS_P2;Temp;Humidity;BMP_temperature;BMP_pressure;BME280_temperature;BME280_humidity;BME280_pressure;Samples;Min_cycle;Max_cycle;Signal;HPM_P1;HPM_P2
2022/07/25 00:01:18;;;;;;;3.35;2.10;;;;;;;;;;5053811;28;20044;-55
2022/07/25 00:03:48;;;;;;;2.47;1.55;;;;;;;;;;5053741;28;20052;-55
2022/07/25 00:06:16;;;;;;;3.35;1.52;;;;;;;;;;5053489;28;20060;-54
2022/07/25 00:08:45;;;;;;;4.32;1.90;;;;;;;;;;5053469;28;20053;-51
2022/07/25 00:11:18;;;;;;;3.67;1.90;;;;;;;;;;5053629;28;20053;-52
2022/07/25 00:13:47;;;;;;;3.33;2.30;;;;;;;;;;5052829;28;20081;-55
2022/07/25 00:16:16;;;;;;;3.63;1.60;;;;;;;;;;5052999;28;20389;-55
2022/07/25 00:18:44;;;;;;;3.50;1.90;;;;;;;;;;5052960;28;20061;-55
2022/07/25 00:21:12;;;;;;;2.85;1.80;;;;;;;;;;5052631;28;20059;-55
2022/07/25 00:23:40;;;;;;;2.30;1.70;;;;;;;;;;5052581;28;20063;-52
2022/07/25 00:26:10;;;;;;;2.90;1.73;;;;;;;;;;5052874;28;20478;-56
2022/07/25 00:28:42;;;;;;;2.88;1.80;;;;;;;;;;5053150;28;20053;-55
2022/07/25 00:31:10;;;;;;;3.20;1.80;;;;;;;;;;5052919;28;20060;-55
2022/07/25 00:33:41;;;;;;;2.65;1.80;;;;;;;;;;5052956;28;20489;-55
2022/07/25 00:36:08;;;;;;;3.97;1.65;;;;;;;;;;5053110;28;20052;-54
2022/07/25 00:38:37;;;;;;;2.83;1.65;;;;;;;;;;5053319;28;20056;-53
2022/07/25 00:41:07;;;;;;;3.15;1.77;;;;;;;;;;5052991;28;20362;-52
2022/07/25 00:43:35;;;;;;;2.80;1.75;;;;;;;;;;5053275;28;20049;-51
2022/07/25 00:46:11;;;;;;;2.72;1.70;;;;;;;;;;5053465;28;20055;-53
2022/07/25 00:48:40;;;;;;;3.10;1.70;;;;;;;;;;5053086;28;20444;-55
2022/07/25 00:51:08;;;;;;;2.70;1.70;;;;;;;;;;5052788;28;20052;-56
2022/07/25 00:53:39;;;;;;;3.75;1.70;;;;;;;;;;5053184;28;20051;-55
2022/07/25 00:56:08;;;;;;;3.17;1.80;;;;;;;;;;5052579;28;20053;-52
2022/07/25 00:58:37;;;;;;;3.72;2.03;;;;;;;;;;5052792;28;20461;-53
2022/07/25 01:01:07;;;;;;;3.45;1.70;;;;;;;;;;5052680;28;20064;-54
2022/07/25 01:03:37;;;;;;;2.97;1.83;;;;;;;;;;5052824;28;20466;-53
2022/07/25 01:06:07;;;;;;;2.72;1.70;;;;;;;;;;5052605;28;20446;-52
2022/07/25 01:08:43;;;;;;;3.47;2.15;;;;;;;;;;5053156;28;20052;-52
2022/07/25 01:11:09;;;;;;;3.15;1.92;;;;;;;;;;5052779;28;20049;-55
2022/07/25 01:13:39;;;;;;;2.78;1.67;;;;;;;;;;5052992;28;20041;-54
2022/07/25 01:16:10;;;;;;;2.88;1.70;;;;;;;;;;5052038;28;20132;-55
2022/07/25 01:18:38;;;;;;;3.25;1.70;;;;;;;;;;5053048;28;20060;-51
2022/07/25 01:21:13;;;;;;;2.63;1.73;;;;;;;;;;5052622;28;20381;-53
2022/07/25 01:23:44;;;;;;;3.42;1.83;;;;;;;;;;5052962;28;20052;-54
2022/07/25 01:26:14;;;;;;;2.97;1.63;;;;;;;;;;5052471;28;20065;-53
2022/07/25 01:28:43;;;;;;;3.00;2.05;;;;;;;;;;5053097;28;20049;-52
2022/07/25 01:31:11;;;;;;;2.90;1.60;;;;;;;;;;5052755;28;20164;-55
2022/07/25 01:33:37;;;;;;;2.83;1.90;;;;;;;;;;5050829;28;20052;-54
2022/07/25 01:36:13;;;;;;;3.92;1.88;;;;;;;;;;5052218;28;20642;-51
2022/07/25 01:38:40;;;;;;;5.43;1.98;;;;;;;;;;5052644;28;20048;-51
2022/07/25 01:41:07;;;;;;;4.47;1.67;;;;;;;;;;5053090;28;20061;-53
2022/07/25 01:43:36;;;;;;;3.80;2.20;;;;;;;;;;5056275;28;20378;-55
2022/07/25 01:46:06;;;;;;;3.85;1.80;;;;;;;;;;5056265;28;20053;-55
2022/07/25 01:48:36;;;;;;;3.88;1.77;;;;;;;;;;5056317;28;20076;-54
2022/07/25 01:51:03;;;;;;;2.80;1.40;;;;;;;;;;5055944;28;20052;-53
2022/07/25 01:53:35;;;;;;;2.70;1.90;;;;;;;;;;5055751;28;20483;-53
2022/07/25 01:56:06;;;;;;;2.92;2.03;;;;;;;;;;5055844;28;20059;-51
2022/07/25 01:58:35;;;;;;;3.35;1.95;;;;;;;;;;5056270;28;20077;-51
2022/07/25 02:01:03;;;;;;;2.58;1.80;;;;;;;;;;5055755;28;20176;-54
2022/07/25 02:03:31;;;;;;;3.55;2.03;;;;;;;;;;5056204;28;20045;-53
2022/07/25 02:06:00;;;;;;;4.00;2.03;;;;;;;;;;5056180;28;20059;-55
2022/07/25 02:08:30;;;;;;;4.55;1.90;;;;;;;;;;5055491;28;20455;-55
2022/07/25 02:11:01;;;;;;;4.40;2.00;;;;;;;;;;5055951;28;20061;-54
2022/07/25 02:13:28;;;;;;;3.80;1.90;;;;;;;;;;5055508;28;20045;-51
2022/07/25 02:15:58;;;;;;;2.40;1.73;;;;;;;;;;5055857;28;20134;-55
2022/07/25 02:18:26;;;;;;;2.90;1.90;;;;;;;;;;5055759;28;20055;-54
2022/07/25 02:20:56;;;;;;;3.88;2.20;;;;;;;;;;5055844;28;20059;-55
2022/07/25 02:23:22;;;;;;;4.55;2.03;;;;;;;;;;5055284;28;20060;-52
2022/07/25 02:25:53;;;;;;;4.50;2.10;;;;;;;;;;5055134;28;20386;-51
2022/07/25 02:28:23;;;;;;;4.88;2.17;;;;;;;;;;5055497;28;20057;-53
2022/07/25 02:30:50;;;;;;;3.63;2.20;;;;;;;;;;5055224;28;20060;-51
2022/07/25 02:33:19;;;;;;;4.45;2.03;;;;;;;;;;5054542;28;20060;-51
2022/07/25 02:35:48;;;;;;;3.60;2.05;;;;;;;;;;5055337;28;20135;-53
2022/07/25 02:38:18;;;;;;;3.65;2.25;;;;;;;;;;5055462;28;20053;-54
2022/07/25 02:40:48;;;;;;;2.60;2.00;;;;;;;;;;5055596;28;20057;-52
2022/07/25 02:43:17;;;;;;;3.78;2.28;;;;;;;;;;5055484;28;20056;-55
2022/07/25 02:45:49;;;;;;;4.78;2.50;;;;;;;;;;5055241;28;20049;-55
2022/07/25 02:48:18;;;;;;;3.60;2.25;;;;;;;;;;5055403;28;20157;-55
2022/07/25 02:50:46;;;;;;;4.03;2.30;;;;;;;;;;5055306;28;20052;-55
2022/07/25 02:53:14;;;;;;;4.55;2.35;;;;;;;;;;5054766;28;20057;-54
2022/07/25 02:55:41;;;;;;;3.85;2.40;;;;;;;;;;5054429;28;20083;-52
2022/07/25 02:58:11;;;;;;;4.35;2.45;;;;;;;;;;5054974;28;20055;-51
2022/07/25 03:00:40;;;;;;;3.40;2.03;;;;;;;;;;5055000;28;20053;-53
2022/07/25 03:03:24;;;;;;;6.03;2.42;;;;;;;;;;5054903;28;20072;-55
2022/07/25 03:06:05;;;;;;;4.82;2.08;;;;;;;;;;5055027;28;20147;-51
2022/07/25 03:08:35;;;;;;;4.63;2.22;;;;;;;;;;5054543;28;20665;-51
2022/07/25 03:11:02;;;;;;;2.75;2.15;;;;;;;;;;5053590;28;20048;-51
2022/07/25 03:13:40;;;;;;;3.20;2.30;;;;;;;;;;5054819;28;20048;-51
2022/07/25 03:16:09;;;;;;;5.65;2.53;;;;;;;;;;5054725;28;20049;-51
2022/07/25 03:18:52;;;;;;;3.15;2.17;;;;;;;;;;5054768;28;20055;-54
2022/07/25 03:21:19;;;;;;;4.05;2.22;;;;;;;;;;5054700;28;20111;-52
2022/07/25 03:26:28;;;;;;;5.75;2.40;;;;;;;;;;5054165;28;20049;-51
2022/07/25 03:28:58;;;;;;;3.22;2.20;;;;;;;;;;5053783;28;20052;-54
2022/07/25 03:31:28;;;;;;;3.55;2.47;;;;;;;;;;5054381;28;20532;-54
2022/07/25 03:34:03;;;;;;;3.58;2.20;;;;;;;;;;5054099;28;20044;-54
2022/07/25 03:36:30;;;;;;;2.73;1.97;;;;;;;;;;5054381;28;20059;-54
2022/07/25 03:38:59;;;;;;;3.88;2.10;;;;;;;;;;5054023;28;20283;-55
2022/07/25 03:41:28;;;;;;;4.57;2.20;;;;;;;;;;5054229;28;20090;-55
2022/07/25 03:43:59;;;;;;;3.38;2.25;;;;;;;;;;5053863;28;20468;-55
2022/07/25 03:46:29;;;;;;;4.80;2.05;;;;;;;;;;5054298;28;20045;-55
2022/07/25 03:48:58;;;;;;;5.50;2.00;;;;;;;;;;5053983;28;20386;-54
2022/07/25 03:51:26;;;;;;;5.45;2.20;;;;;;;;;;5053959;28;20055;-52
2022/07/25 03:54:02;;;;;;;3.30;1.98;;;;;;;;;;5053676;28;20140;-55
2022/07/25 03:56:32;;;;;;;3.35;2.05;;;;;;;;;;5053687;28;20114;-52
2022/07/25 03:59:00;;;;;;;3.80;2.05;;;;;;;;;;5052248;28;20051;-52
2022/07/25 04:01:29;;;;;;;4.38;2.60;;;;;;;;;;5053795;28;20045;-55
2022/07/25 04:03:58;;;;;;;2.80;1.85;;;;;;;;;;5053237;28;20115;-55
2022/07/25 04:06:28;;;;;;;2.65;2.00;;;;;;;;;;5052311;28;20049;-54
2022/07/25 04:08:59;;;;;;;4.10;2.10;;;;;;;;;;5053377;28;20069;-55
2022/07/25 04:11:37;;;;;;;4.35;2.00;;;;;;;;;;5053190;28;20057;-54
2022/07/25 04:14:06;;;;;;;3.13;1.80;;;;;;;;;;5053085;28;20508;-54
2022/07/25 04:16:35;;;;;;;6.53;2.35;;;;;;;;;;5053000;28;20500;-55
2022/07/25 04:19:05;;;;;;;3.03;1.90;;;;;;;;;;5053507;28;20053;-55
2022/07/25 04:21:35;;;;;;;2.80;1.77;;;;;;;;;;5053667;28;20053;-55
2022/07/25 04:24:06;;;;;;;3.85;2.05;;;;;;;;;;5053608;28;20049;-55
2022/07/25 04:26:36;;;;;;;4.18;2.30;;;;;;;;;;5053387;28;20044;-55
2022/07/25 04:29:02;;;;;;;5.00;2.20;;;;;;;;;;5053116;28;20048;-52
2022/07/25 04:31:32;;;;;;;6.13;2.00;;;;;;;;;;5052592;28;20136;-53
2022/07/25 04:34:00;;;;;;;4.93;2.20;;;;;;;;;;5052886;28;20531;-53
2022/07/25 04:36:30;;;;;;;2.80;2.13;;;;;;;;;;5051164;28;20049;-55
2022/07/25 04:39:08;;;;;;;5.30;2.38;;;;;;;;;;5053287;28;20057;-55
2022/07/25 04:41:36;;;;;;;4.07;1.90;;;;;;;;;;5052764;28;20442;-54
2022/07/25 04:46:46;;;;;;;2.95;2.10;;;;;;;;;;5053244;28;20053;-54
2022/07/25 04:51:58;;;;;;;3.78;2.40;;;;;;;;;;5052976;28;20049;-55
2022/07/25 04:54:33;;;;;;;5.43;2.72;;;;;;;;;;5052631;28;20060;-51
2022/07/25 04:57:03;;;;;;;19.15;3.30;;;;;;;;;;5052764;28;20055;-54
2022/07/25 04:59:33;;;;;;;17.27;2.67;;;;;;;;;;5052525;28;20494;-51
2022/07/25 05:02:03;;;;;;;6.00;2.35;;;;;;;;;;5052932;28;20434;-53
2022/07/25 05:04:33;;;;;;;3.28;1.73;;;;;;;;;;5053234;28;20053;-52
2022/07/25 05:07:01;;;;;;;3.67;2.47;;;;;;;;;;5053006;28;20060;-54
2022/07/25 05:09:38;;;;;;;5.90;2.47;;;;;;;;;;5052824;28;20049;-55
2022/07/25 05:12:09;;;;;;;5.30;2.47;;;;;;;;;;5052576;28;20478;-55
2022/07/25 05:14:37;;;;;;;3.97;2.42;;;;;;;;;;5052954;28;20053;-54
2022/07/25 05:17:07;;;;;;;3.75;2.20;;;;;;;;;;5055035;28;20060;-55
2022/07/25 05:19:35;;;;;;;8.07;2.58;;;;;;;;;;5057019;28;20045;-55
2022/07/25 05:22:05;;;;;;;3.85;2.13;;;;;;;;;;5057108;28;20057;-53
2022/07/25 05:24:37;;;;;;;2.92;1.92;;;;;;;;;;5057028;28;20096;-55
2022/07/25 05:27:07;;;;;;;3.38;2.10;;;;;;;;;;5056673;28;20075;-55
2022/07/25 05:29:37;;;;;;;3.35;1.90;;;;;;;;;;5056687;28;20131;-51
2022/07/25 05:32:05;;;;;;;3.35;2.15;;;;;;;;;;5056843;28;20057;-53
2022/07/25 05:34:41;;;;;;;3.40;2.13;;;;;;;;;;5056567;28;20060;-54
2022/07/25 05:37:08;;;;;;;4.55;1.98;;;;;;;;;;5056595;28;20048;-53
2022/07/25 05:39:39;;;;;;;2.65;1.90;;;;;;;;;;5056698;28;20059;-55
2022/07/25 05:42:05;;;;;;;3.53;1.77;;;;;;;;;;5055243;28;20063;-55
2022/07/25 05:44:32;;;;;;;7.25;2.00;;;;;;;;;;5056195;28;20393;-54
2022/07/25 05:47:02;;;;;;;2.67;1.85;;;;;;;;;;5056322;28;20073;-55
2022/07/25 05:49:30;;;;;;;4.38;2.22;;;;;;;;;;5055785;28;20080;-55
2022/07/25 05:52:00;;;;;;;7.75;2.13;;;;;;;;;;5048282;28;20052;-55
2022/07/25 05:54:27;;;;;;;4.88;1.95;;;;;;;;;;5043830;28;20532;-53
2022/07/25 05:57:00;;;;;;;3.28;1.63;;;;;;;;;;5050964;28;20052;-51
2022/07/25 05:59:26;;;;;;;4.50;1.90;;;;;;;;;;5054118;28;20053;-51
2022/07/25 06:01:53;;;;;;;3.25;1.95;;;;;;;;;;5054198;28;20480;-51
2022/07/25 06:04:28;;;;;;;3.88;2.35;;;;;;;;;;5054676;28;20060;-50
2022/07/25 06:06:59;;;;;;;3.97;1.65;;;;;;;;;;5054904;28;20049;-51
2022/07/25 06:09:30;;;;;;;3.40;1.70;;;;;;;;;;5054886;28;20053;-51
2022/07/25 06:12:10;;;;;;;6.72;1.80;;;;;;;;;;5055342;28;20145;-51
2022/07/25 06:14:40;;;;;;;2.03;1.67;;;;;;;;;;5054274;28;20045;-52
2022/07/25 06:17:11;;;;;;;4.95;1.95;;;;;;;;;;5054164;28;20080;-55
2022/07/25 06:19:41;;;;;;;6.45;1.73;;;;;;;;;;5049225;28;20154;-51
2022/07/25 06:22:10;;;;;;;3.65;1.92;;;;;;;;;;5054707;28;20057;-52
2022/07/25 06:24:40;;;;;;;7.07;1.85;;;;;;;;;;5054283;28;20064;-54
2022/07/25 06:27:18;;;;;;;2.63;1.65;;;;;;;;;;5054818;28;20049;-55
2022/07/25 06:29:48;;;;;;;4.88;1.70;;;;;;;;;;5054197;28;20053;-54
2022/07/25 06:32:16;;;;;;;2.35;1.80;;;;;;;;;;5054270;28;20045;-55
2022/07/25 06:34:45;;;;;;;3.15;1.90;;;;;;;;;;5053453;28;20438;-55
2022/07/25 06:37:14;;;;;;;5.65;1.92;;;;;;;;;;5053835;28;20067;-54
2022/07/25 06:39:45;;;;;;;6.63;2.45;;;;;;;;;;5054074;28;20053;-54
2022/07/25 06:42:30;;;;;;;2.80;1.80;;;;;;;;;;5054025;28;20063;-55
2022/07/25 06:44:56;;;;;;;4.10;2.05;;;;;;;;;;5050911;28;20052;-57
2022/07/25 06:47:24;;;;;;;8.55;2.28;;;;;;;;;;5054061;28;20045;-53
2022/07/25 06:49:54;;;;;;;9.15;2.50;;;;;;;;;;5053324;28;20060;-50
2022/07/25 06:52:23;;;;;;;8.77;2.30;;;;;;;;;;5054327;28;20072;-55
2022/07/25 06:54:58;;;;;;;6.22;2.30;;;;;;;;;;5054077;28;20052;-56
2022/07/25 06:57:36;;;;;;;14.90;2.20;;;;;;;;;;5054394;28;20060;-54
2022/07/25 07:00:12;;;;;;;3.28;1.63;;;;;;;;;;5052615;28;20053;-53
2022/07/25 07:02:59;;;;;;;3.20;1.60;;;;;;;;;;5053661;28;20110;-53
2022/07/25 07:05:32;;;;;;;3.45;1.90;;;;;;;;;;5054139;28;20135;-52
2022/07/25 07:08:01;;;;;;;3.35;1.92;;;;;;;;;;5054221;28;20048;-53
2022/07/25 07:10:29;;;;;;;4.63;1.83;;;;;;;;;;5054077;28;20057;-54
2022/07/25 07:13:20;;;;;;;4.72;2.15;;;;;;;;;;5048709;28;20048;-57
2022/07/25 07:15:56;;;;;;;4.93;2.20;;;;;;;;;;5052985;28;20053;-58
2022/07/25 07:18:26;;;;;;;2.15;1.63;;;;;;;;;;5053660;28;20057;-51
2022/07/25 07:20:54;;;;;;;8.38;2.38;;;;;;;;;;5052926;28;20087;-56
2022/07/25 07:26:04;;;;;;;2.47;1.95;;;;;;;;;;5051669;28;20458;-55
2022/07/25 07:28:40;;;;;;;3.28;2.00;;;;;;;;;;5053823;28;20110;-52
2022/07/25 07:31:10;;;;;;;7.22;2.33;;;;;;;;;;5047975;28;20052;-53
2022/07/25 07:33:40;;;;;;;33.25;4.18;;;;;;;;;;5053051;28;20497;-52
2022/07/25 07:36:17;;;;;;;4.18;1.90;;;;;;;;;;5053677;28;20049;-54
2022/07/25 07:38:47;;;;;;;3.95;2.10;;;;;;;;;;5052401;28;20438;-52
2022/07/25 07:41:14;;;;;;;3.80;1.92;;;;;;;;;;5052851;28;20132;-54
2022/07/25 07:43:49;;;;;;;4.18;1.90;;;;;;;;;;5051083;28;20409;-52
2022/07/25 07:46:21;;;;;;;3.38;2.10;;;;;;;;;;5051970;28;20041;-55
2022/07/25 07:48:51;;;;;;;5.97;2.20;;;;;;;;;;5050388;28;20124;-56
2022/07/25 07:51:19;;;;;;;3.03;1.95;;;;;;;;;;5052314;28;20484;-55
2022/07/25 07:56:33;;;;;;;3.42;2.03;;;;;;;;;;5052579;28;20493;-52
2022/07/25 07:59:03;;;;;;;4.43;2.15;;;;;;;;;;5051768;28;20489;-54
2022/07/25 08:01:34;;;;;;;3.72;2.10;;;;;;;;;;5052780;28;20135;-56
2022/07/25 08:04:02;;;;;;;3.92;2.03;;;;;;;;;;5052853;28;20064;-53
2022/07/25 08:06:30;;;;;;;4.57;2.05;;;;;;;;;;5052936;28;20060;-52
2022/07/25 08:09:01;;;;;;;2.55;1.98;;;;;;;;;;5052287;28;20048;-54
2022/07/25 08:11:31;;;;;;;43.88;18.83;;;;;;;;;;5052393;28;20589;-53
2022/07/25 08:14:03;;;;;;;7.80;3.53;;;;;;;;;;5052639;28;20052;-51
2022/07/25 08:16:33;;;;;;;7.05;2.88;;;;;;;;;;5051951;28;20486;-52
2022/07/25 08:19:06;;;;;;;8.32;2.55;;;;;;;;;;5051754;28;20045;-54
2022/07/25 08:21:34;;;;;;;5.97;2.60;;;;;;;;;;5052716;28;20049;-52
2022/07/25 08:24:03;;;;;;;33.35;3.35;;;;;;;;;;5052550;28;20103;-53
2022/07/25 08:26:35;;;;;;;9.52;3.00;;;;;;;;;;5052666;28;20048;-54
2022/07/25 08:29:05;;;;;;;4.88;2.78;;;;;;;;;;5051957;28;20162;-52
2022/07/25 08:31:33;;;;;;;3.10;2.80;;;;;;;;;;5052389;28;20132;-52
2022/07/25 08:34:02;;;;;;;14.65;2.88;;;;;;;;;;5051841;28;20080;-54
2022/07/25 08:36:30;;;;;;;4.85;2.22;;;;;;;;;;5052248;28;20469;-52
2022/07/25 08:39:00;;;;;;;5.57;2.35;;;;;;;;;;5051836;28;20037;-55
2022/07/25 08:41:35;;;;;;;11.82;2.83;;;;;;;;;;5052292;28;20118;-55
2022/07/25 08:44:02;;;;;;;5.35;2.67;;;;;;;;;;5050804;28;20055;-55
2022/07/25 08:46:31;;;;;;;6.70;3.03;;;;;;;;;;5051694;28;20098;-53
2022/07/25 08:49:03;;;;;;;4.47;2.75;;;;;;;;;;5051276;28;20512;-55
2022/07/25 08:51:39;;;;;;;3.22;2.25;;;;;;;;;;5051595;28;20049;-54
2022/07/25 08:54:07;;;;;;;6.28;2.55;;;;;;;;;;5052312;28;20079;-51
2022/07/25 08:56:37;;;;;;;5.72;2.88;;;;;;;;;;5051426;28;20057;-55
2022/07/25 08:59:05;;;;;;;11.48;2.58;;;;;;;;;;5051183;28;20300;-53
2022/07/25 09:01:33;;;;;;;3.17;1.85;;;;;;;;;;5052051;28;20103;-56
2022/07/25 09:04:03;;;;;;;20.83;3.40;;;;;;;;;;5051508;28;20132;-54
2022/07/25 09:06:33;;;;;;;2.70;2.20;;;;;;;;;;5051878;28;20429;-55
2022/07/25 09:09:03;;;;;;;9.00;2.30;;;;;;;;;;5051101;28;20107;-54
2022/07/25 09:11:40;;;;;;;6.57;2.50;;;;;;;;;;5051611;28;20444;-53
2022/07/25 09:14:10;;;;;;;4.50;2.20;;;;;;;;;;5051950;28;20077;-56
2022/07/25 09:16:39;;;;;;;4.20;2.30;;;;;;;;;;5051612;28;20055;-52
2022/07/25 09:19:25;;;;;;;3.67;2.13;;;;;;;;;;5051087;28;20675;-55
2022/07/25 09:22:06;;;;;;;2.95;2.40;;;;;;;;;;5052027;28;20087;-55
2022/07/25 09:24:42;;;;;;;2.47;1.75;;;;;;;;;;5052179;28;20060;-54
2022/07/25 09:27:10;;;;;;;11.43;2.33;;;;;;;;;;5042201;28;20081;-52
2022/07/25 09:29:39;;;;;;;5.93;2.03;;;;;;;;;;5051166;28;20100;-55
2022/07/25 09:32:19;;;;;;;3.95;2.05;;;;;;;;;;5051697;28;20045;-55
2022/07/25 09:34:48;;;;;;;5.47;2.33;;;;;;;;;;5051432;28;20049;-53
2022/07/25 09:37:30;;;;;;;46.47;5.35;;;;;;;;;;5050705;28;20066;-53
2022/07/25 09:39:57;;;;;;;6.72;2.33;;;;;;;;;;5033395;28;20116;-52
2022/07/25 09:42:25;;;;;;;6.35;2.40;;;;;;;;;;5031672;28;20041;-56
2022/07/25 09:45:05;;;;;;;4.70;2.13;;;;;;;;;;5030891;28;20486;-56
2022/07/25 09:47:34;;;;;;;2.97;2.00;;;;;;;;;;5031329;28;20132;-56
2022/07/25 09:50:03;;;;;;;3.50;2.22;;;;;;;;;;5031975;28;20125;-55
2022/07/25 09:52:45;;;;;;;3.88;2.10;;;;;;;;;;5031676;28;20049;-56
2022/07/25 09:55:14;;;;;;;3.92;2.50;;;;;;;;;;5022591;28;20144;-56
2022/07/25 09:57:51;;;;;;;6.75;2.30;;;;;;;;;;5031331;28;20132;-52
2022/07/25 10:00:26;;;;;;;3.08;2.00;;;;;;;;;;5031717;28;20076;-52
2022/07/25 10:03:01;;;;;;;4.95;2.47;;;;;;;;;;5032835;28;20053;-54
2022/07/25 10:05:41;;;;;;;5.18;2.40;;;;;;;;;;5034924;28;20045;-52
2022/07/25 10:08:10;;;;;;;4.15;2.20;;;;;;;;;;5035522;28;20053;-56
2022/07/25 10:10:48;;;;;;;5.85;2.47;;;;;;;;;;5035043;28;20045;-56
2022/07/25 10:13:28;;;;;;;11.43;2.92;;;;;;;;;;5028991;28;20064;-55
2022/07/25 10:15:57;;;;;;;4.47;2.20;;;;;;;;;;5034416;28;20136;-53
2022/07/25 10:18:33;;;;;;;4.07;2.75;;;;;;;;;;5034867;28;20048;-53
2022/07/25 10:21:11;;;;;;;4.35;2.30;;;;;;;;;;5033328;28;20049;-55
2022/07/25 10:23:59;;;;;;;45.10;4.70;;;;;;;;;;5031590;28;20390;-54
2022/07/25 10:26:30;;;;;;;3.25;2.20;;;;;;;;;;5034019;28;20115;-55
2022/07/25 10:29:00;;;;;;;3.10;2.40;;;;;;;;;;5034745;28;20037;-52
2022/07/25 10:31:35;;;;;;;27.73;4.30;;;;;;;;;;5034710;28;20088;-52
2022/07/25 10:34:06;;;;;;;4.68;2.85;;;;;;;;;;5034445;28;20053;-55
2022/07/25 10:36:46;;;;;;;8.35;3.00;;;;;;;;;;5033731;28;20075;-53
2022/07/25 10:39:16;;;;;;;9.98;2.53;;;;;;;;;;5025742;28;20530;-55
2022/07/25 10:41:46;;;;;;;3.58;2.70;;;;;;;;;;5034454;28;20069;-51
2022/07/25 10:44:16;;;;;;;2.75;2.47;;;;;;;;;;5033592;28;20446;-53
2022/07/25 10:46:44;;;;;;;7.88;2.72;;;;;;;;;;5034805;28;20136;-53
2022/07/25 10:49:17;;;;;;;37.78;5.05;;;;;;;;;;5034423;28;20112;-52
2022/07/25 10:51:55;;;;;;;3.77;2.40;;;;;;;;;;5033887;28;20045;-52
2022/07/25 10:54:39;;;;;;;4.63;2.65;;;;;;;;;;5027789;28;20319;-53
2022/07/25 10:57:14;;;;;;;3.20;2.40;;;;;;;;;;5023828;28;20146;-53
2022/07/25 10:59:45;;;;;;;4.80;3.05;;;;;;;;;;5033505;28;20046;-53
2022/07/25 11:02:15;;;;;;;3.28;2.75;;;;;;;;;;5034666;28;20049;-52
2022/07/25 11:04:44;;;;;;;5.70;2.83;;;;;;;;;;5034223;28;20053;-53
2022/07/25 11:07:16;;;;;;;4.45;2.70;;;;;;;;;;5032631;28;20049;-52
2022/07/25 11:09:58;;;;;;;3.60;2.70;;;;;;;;;;5034499;28;20355;-52
2022/07/25 11:12:24;;;;;;;7.03;2.67;;;;;;;;;;5028383;28;20049;-50
2022/07/25 11:14:58;;;;;;;3.95;2.60;;;;;;;;;;5033651;28;20360;-51
2022/07/25 11:17:28;;;;;;;;;;;;;;;;;;5034661;28;20122;-50
2022/07/25 11:19:59;;;;;;;8.98;2.92;;;;;;;;;;5033763;28;20284;-50
2022/07/25 11:22:37;;;;;;;8.45;3.30;;;;;;;;;;5033320;28;20045;-51
2022/07/25 11:25:18;;;;;;;5.05;2.78;;;;;;;;;;5032929;28;20049;-50
2022/07/25 11:27:49;;;;;;;3.28;2.50;;;;;;;;;;5034126;28;20128;-54
2022/07/25 11:30:21;;;;;;;4.20;2.55;;;;;;;;;;5033414;28;20701;-54
2022/07/25 11:32:50;;;;;;;8.38;2.80;;;;;;;;;;5029926;28;20429;-52
2022/07/25 11:35:32;;;;;;;3.40;2.58;;;;;;;;;;5033647;28;20061;-54
2022/07/25 11:38:03;;;;;;;16.60;3.65;;;;;;;;;;5034056;28;20061;-50
2022/07/25 11:40:41;;;;;;;70.30;7.63;;;;;;;;;;5033165;28;20049;-54
2022/07/25 11:43:10;;;;;;;3.75;2.83;;;;;;;;;;5033115;28;20057;-50
2022/07/25 11:48:21;;;;;;;6.95;2.83;;;;;;;;;;5031519;28;20049;-50
2022/07/25 11:50:51;;;;;;;5.25;2.47;;;;;;;;;;5022610;28;20052;-52
2022/07/25 11:53:24;;;;;;;6.38;2.70;;;;;;;;;;5024512;28;20115;-51
2022/07/25 11:55:57;;;;;;;4.75;2.67;;;;;;;;;;5032745;28;20099;-52
2022/07/25 11:58:25;;;;;;;3.50;2.50;;;;;;;;;;5033234;28;20200;-51
2022/07/25 12:00:51;;;;;;;5.18;2.40;;;;;;;;;;5032683;28;20440;-52
2022/07/25 12:03:19;;;;;;;5.43;2.50;;;;;;;;;;5032054;28;20569;-54
2022/07/25 12:05:57;;;;;;;14.98;3.45;;;;;;;;;;5032789;28;20049;-52
2022/07/25 12:08:27;;;;;;;4.57;2.60;;;;;;;;;;5031147;28;20067;-52
2022/07/25 12:11:04;;;;;;;5.90;2.55;;;;;;;;;;5032628;28;20046;-51
2022/07/25 12:13:35;;;;;;;3.08;2.00;;;;;;;;;;5032120;28;20120;-52
2022/07/25 12:16:04;;;;;;;10.32;3.13;;;;;;;;;;5032747;28;20069;-52
2022/07/25 12:18:32;;;;;;;3.38;2.58;;;;;;;;;;5032143;28;20088;-53
2022/07/25 12:20:59;;;;;;;5.40;2.67;;;;;;;;;;5031859;28;20045;-50
2022/07/25 12:23:29;;;;;;;6.50;2.88;;;;;;;;;;5032314;28;20076;-54
2022/07/25 12:26:04;;;;;;;3.67;2.35;;;;;;;;;;5031774;28;20095;-55
2022/07/25 12:28:32;;;;;;;3.95;2.10;;;;;;;;;;5032155;28;20426;-51
2022/07/25 12:31:03;;;;;;;4.22;2.70;;;;;;;;;;5030709;28;20437;-52
2022/07/25 12:33:33;;;;;;;4.63;2.50;;;;;;;;;;5032332;28;20059;-52
2022/07/25 12:36:01;;;;;;;11.98;2.70;;;;;;;;;;5032585;28;20053;-52
2022/07/25 12:38:29;;;;;;;7.72;3.20;;;;;;;;;;5032026;28;20478;-52
2022/07/25 12:41:11;;;;;;;5.40;2.83;;;;;;;;;;5031455;28;20045;-55
2022/07/25 12:43:41;;;;;;;9.48;3.10;;;;;;;;;;5030540;28;20053;-55
2022/07/25 12:46:11;;;;;;;4.85;2.97;;;;;;;;;;5031213;28;20824;-53
2022/07/25 12:48:41;;;;;;;5.95;3.03;;;;;;;;;;5032610;28;20056;-55
2022/07/25 12:51:11;;;;;;;5.45;2.85;;;;;;;;;;5022429;28;20111;-56
2022/07/25 12:53:42;;;;;;;5.07;3.30;;;;;;;;;;5032127;28;20433;-55
2022/07/25 12:56:12;;;;;;;5.43;2.80;;;;;;;;;;5031785;28;20140;-51
2022/07/25 12:58:42;;;;;;;4.97;3.28;;;;;;;;;;5031870;28;20061;-55
2022/07/25 13:01:12;;;;;;;5.18;2.90;;;;;;;;;;5030614;28;20049;-53
2022/07/25 13:03:43;;;;;;;2.80;2.33;;;;;;;;;;5030896;28;20057;-50
2022/07/25 13:06:12;;;;;;;7.50;2.30;;;;;;;;;;5031934;28;20068;-54
2022/07/25 13:08:41;;;;;;;4.55;2.70;;;;;;;;;;5031935;28;20482;-53
2022/07/25 13:11:08;;;;;;;4.38;2.90;;;;;;;;;;5031090;28;20122;-54
2022/07/25 13:13:51;;;;;;;4.07;2.78;;;;;;;;;;5031673;28;20056;-55
2022/07/25 13:16:19;;;;;;;3.53;2.30;;;;;;;;;;5031346;28;20057;-56
2022/07/25 13:18:49;;;;;;;5.82;2.25;;;;;;;;;;5030910;28;20141;-57
2022/07/25 13:21:20;;;;;;;3.92;2.70;;;;;;;;;;5032136;28;20053;-56
2022/07/25 13:23:48;;;;;;;4.53;2.58;;;;;;;;;;5031416;28;20530;-57
2022/07/25 13:29:07;;;;;;;3.42;2.40;;;;;;;;;;5031977;28;20386;-57
2022/07/25 13:31:34;;;;;;;10.82;2.75;;;;;;;;;;5026559;28;20053;-51
2022/07/25 13:34:02;;;;;;;14.52;3.15;;;;;;;;;;5031989;28;20049;-53
2022/07/25 13:36:38;;;;;;;4.18;2.20;;;;;;;;;;5027742;28;20459;-55
2022/07/25 13:39:09;;;;;;;3.15;2.00;;;;;;;;;;5035364;28;20061;-55
2022/07/25 13:41:35;;;;;;;3.67;2.15;;;;;;;;;;5035540;28;20053;-52
2022/07/25 13:44:20;;;;;;;9.75;2.50;;;;;;;;;;5035774;28;20053;-54
2022/07/25 13:46:57;;;;;;;4.05;2.08;;;;;;;;;;5025714;28;20115;-50
2022/07/25 13:49:27;;;;;;;4.20;2.10;;;;;;;;;;5035200;28;20467;-53
2022/07/25 13:51:54;;;;;;;6.53;2.30;;;;;;;;;;5035205;28;20049;-54
2022/07/25 13:54:23;;;;;;;4.03;1.60;;;;;;;;;;5035739;28;20060;-52
2022/07/25 13:56:53;;;;;;;7.20;2.30;;;;;;;;;;5035419;28;20141;-53
2022/07/25 13:59:29;;;;;;;3.85;2.10;;;;;;;;;;5034923;28;20053;-52
2022/07/25 14:01:59;;;;;;;6.65;2.30;;;;;;;;;;5035413;28;20425;-57
2022/07/25 14:04:29;;;;;;;5.60;2.10;;;;;;;;;;5035612;28;20052;-56
2022/07/25 14:07:00;;;;;;;6.80;2.42;;;;;;;;;;5034031;28;20119;-54
2022/07/25 14:09:28;;;;;;;6.68;2.25;;;;;;;;;;5035062;28;20144;-56
2022/07/25 14:11:58;;;;;;;4.88;2.38;;;;;;;;;;5035694;28;20064;-56
2022/07/25 14:14:31;;;;;;;4.45;2.30;;;;;;;;;;5035341;28;20084;-52
2022/07/25 14:16:59;;;;;;;5.78;2.22;;;;;;;;;;5032239;28;20049;-55
2022/07/25 14:19:30;;;;;;;11.38;2.58;;;;;;;;;;5034196;28;20045;-55
2022/07/25 14:22:00;;;;;;;5.55;2.28;;;;;;;;;;5035288;28;20054;-52
2022/07/25 14:24:30;;;;;;;5.20;2.28;;;;;;;;;;5034958;28;20128;-55
2022/07/25 14:26:58;;;;;;;5.78;2.22;;;;;;;;;;5034261;28;20041;-54
2022/07/25 14:29:30;;;;;;;3.80;2.25;;;;;;;;;;5034664;28;20061;-55
2022/07/25 14:32:00;;;;;;;6.63;2.38;;;;;;;;;;5034802;28;20114;-52
2022/07/25 14:34:26;;;;;;;9.60;2.60;;;;;;;;;;5034730;28;20060;-55
2022/07/25 14:36:53;;;;;;;27.30;3.88;;;;;;;;;;5033264;28;20045;-51
2022/07/25 14:39:22;;;;;;;5.78;2.70;;;;;;;;;;5026674;28;20049;-53
2022/07/25 14:41:48;;;;;;;4.50;1.58;;;;;;;;;;5027587;28;20045;-55
2022/07/25 14:44:19;;;;;;;2.70;1.70;;;;;;;;;;5027086;28;20049;-54
2022/07/25 14:46:50;;;;;;;10.80;2.58;;;;;;;;;;5031704;28;20132;-55
2022/07/25 14:49:18;;;;;;;4.35;2.13;;;;;;;;;;5034353;28;20458;-57
2022/07/25 14:51:47;;;;;;;6.40;2.50;;;;;;;;;;5034373;28;20045;-53
2022/07/25 14:54:15;;;;;;;5.85;3.03;;;;;;;;;;5034528;28;20049;-55
2022/07/25 14:56:43;;;;;;;53.58;5.75;;;;;;;;;;5033422;28;20050;-59
2022/07/25 14:59:10;;;;;;;3.63;2.45;;;;;;;;;;5034823;28;20083;-60
2022/07/25 15:01:41;;;;;;;29.73;4.93;;;;;;;;;;5034030;28;20056;-57
2022/07/25 15:04:25;;;;;;;5.80;2.70;;;;;;;;;;5034347;28;20128;-56
2022/07/25 15:06:53;;;;;;;12.77;2.65;;;;;;;;;;5033877;28;20045;-55
2022/07/25 15:09:21;;;;;;;3.95;2.30;;;;;;;;;;5034109;28;20054;-55
2022/07/25 15:11:51;;;;;;;4.53;2.38;;;;;;;;;;5034340;28;20482;-56
2022/07/25 15:14:21;;;;;;;5.53;2.22;;;;;;;;;;5033924;28;20053;-52
2022/07/25 15:16:50;;;;;;;2.83;2.17;;;;;;;;;;5032948;28;20049;-57
2022/07/25 15:19:19;;;;;;;7.40;2.13;;;;;;;;;;5033926;28;20046;-54
2022/07/25 15:21:46;;;;;;;3.13;2.40;;;;;;;;;;5033701;28;20045;-54
2022/07/25 15:24:15;;;;;;;3.63;1.95;;;;;;;;;;5032737;28;20081;-51